Shiquanhe, China
Current Conditions -  °F | °C
As of 2:30 PM on Monday 26 Jan 2015 (Local Time) from VIAR Reporting Station
Haze Haze  
Wind Chill: 57°   Ceiling: Unl
Heat Index: 57°   Visibility: 1.8mi
Dew Point: 48°   Wind: 2mph
Humidity: 72%   Direction: NA
Pressure: 30.21"   Gusts: NA
Location:  32.5°N, 80.08°E
Report Text: VIAR 260630Z VRB02KT 3000 BR SCT025 SCT090 14/09 Q1023
Loading
Personal Weather Stations






























Interactive Weather Map New forecast layout! Learn more

10-Day Weather Forecast

Advertisements
Track Severe Weather on mobile